Time;durP1;ratioP1;P1;durP2;ratioP2;P2;SDS_P1;SDS_P2;PMS_P1;PMS_P2;Temp;Humidity;BMP_temperature;BMP_pressure;BME280_temperature;BME280_humidity;BME280_pressure;Samples;Min_cycle;Max_cycle;Signal;HPM_P1;HPM_P2
2023/08/03 00:02:27;;;;;;;;;;;18.20;99.90;;;;;;7334585;19;109987;-70
2023/08/03 00:04:54;;;;;;;;;;;18.10;99.90;;;;;;7326332;19;113224;-69
2023/08/03 00:07:21;;;;;;;;;;;18.20;99.90;;;;;;7328915;19;110517;-69
2023/08/03 00:09:49;;;;;;;;;;;18.20;99.90;;;;;;7329379;19;108440;-67
2023/08/03 00:12:18;;;;;;;;;;;18.20;99.90;;;;;;7328427;19;110803;-69
2023/08/03 00:14:45;;;;;;;;;;;18.20;99.90;;;;;;7329061;19;110344;-71
2023/08/03 00:17:12;;;;;;;;;;;18.20;99.90;;;;;;7326898;19;108789;-69
2023/08/03 00:19:39;;;;;;;;;;;18.20;99.90;;;;;;7330191;19;115599;-70
2023/08/03 00:22:08;;;;;;;;;;;18.20;99.90;;;;;;7328559;19;110606;-68
2023/08/03 00:24:35;;;;;;;;;;;18.20;99.90;;;;;;7333658;19;108555;-69
2023/08/03 00:27:03;;;;;;;;;;;18.30;99.90;;;;;;7331586;19;109637;-69
2023/08/03 00:29:30;;;;;;;;;;;18.20;99.90;;;;;;7326097;19;110830;-69
2023/08/03 00:32:00;;;;;;;;;;;18.20;99.90;;;;;;7335551;19;110231;-68
2023/08/03 00:34:28;;;;;;;;;;;18.20;99.90;;;;;;7329277;19;109934;-69
2023/08/03 00:36:56;;;;;;;;;;;18.20;99.90;;;;;;7335142;19;108687;-69
2023/08/03 00:39:23;;;;;;;;;;;18.30;99.90;;;;;;7334214;19;111656;-69
2023/08/03 00:41:50;;;;;;;;;;;18.20;99.90;;;;;;7336080;19;109249;-68
2023/08/03 00:44:18;;;;;;;;;;;18.20;99.90;;;;;;7334881;19;109163;-73
2023/08/03 00:46:45;;;;;;;;;;;18.20;99.90;;;;;;7338812;19;108338;-75
2023/08/03 00:49:12;;;;;;;;;;;18.20;99.90;;;;;;7333366;19;108423;-76
2023/08/03 00:51:40;;;;;;;;;;;18.20;99.90;;;;;;7335076;19;111868;-75
2023/08/03 00:54:08;;;;;;;;;;;18.20;99.90;;;;;;7340351;19;110244;-73
2023/08/03 00:56:36;;;;;;;;;;;18.20;99.90;;;;;;7334175;19;109958;-75
2023/08/03 00:59:05;;;;;;;;;;;18.20;99.90;;;;;;7338151;19;108811;-76
2023/08/03 01:01:32;;;;;;;;;;;18.20;99.90;;;;;;7333472;19;111028;-75
2023/08/03 01:04:00;;;;;;;;;;;18.20;99.90;;;;;;7335043;19;112924;-73
2023/08/03 01:06:27;;;;;;;;;;;18.20;99.90;;;;;;7342994;19;108408;-79
2023/08/03 01:08:55;;;;;;;;;;;18.20;99.90;;;;;;7337975;19;112680;-73
2023/08/03 01:11:22;;;;;;;;;;;18.30;99.90;;;;;;7337652;19;111502;-76
2023/08/03 01:13:49;;;;;;;;;;;18.20;99.90;;;;;;7334498;19;110593;-75
2023/08/03 01:16:16;;;;;;;;;;;18.20;99.90;;;;;;7334461;19;108993;-76
2023/08/03 01:18:43;;;;;;;;;;;18.20;99.90;;;;;;7332988;19;109659;-73
2023/08/03 01:21:11;;;;;;;;;;;18.30;99.90;;;;;;7333678;19;111984;-73
2023/08/03 01:23:38;;;;;;;;;;;18.30;99.90;;;;;;7330367;19;108844;-71
2023/08/03 01:26:06;;;;;;;;;;;18.20;99.90;;;;;;7337790;19;109411;-69
2023/08/03 01:28:33;;;;;;;;;;;18.20;99.90;;;;;;7340261;19;109133;-72
2023/08/03 01:31:00;;;;;;;;;;;18.30;99.90;;;;;;7334237;19;110215;-71
2023/08/03 01:33:27;;;;;;;;;;;18.30;99.90;;;;;;7334792;19;109723;-69
2023/08/03 01:35:54;;;;;;;;;;;18.30;99.90;;;;;;7333012;19;108899;-69
2023/08/03 01:38:21;;;;;;;;;;;18.30;99.90;;;;;;7328599;19;108588;-71
2023/08/03 01:40:49;;;;;;;;;;;18.30;99.90;;;;;;7336668;19;110528;-70
2023/08/03 01:43:16;;;;;;;;;;;18.30;99.90;;;;;;7327541;19;110917;-69
2023/08/03 01:45:43;;;;;;;;;;;18.30;99.90;;;;;;7334019;19;109544;-69
2023/08/03 01:48:10;;;;;;;;;;;18.30;99.90;;;;;;7330301;19;109191;-69
2023/08/03 01:50:38;;;;;;;;;;;18.30;99.90;;;;;;7339844;19;110222;-70
2023/08/03 01:53:05;;;;;;;;;;;18.30;99.90;;;;;;7333015;19;109126;-72
2023/08/03 01:55:32;;;;;;;;;;;18.30;99.90;;;;;;7334038;19;108868;-68
2023/08/03 01:57:59;;;;;;;;;;;18.30;99.90;;;;;;7329965;19;109148;-70
2023/08/03 02:00:26;;;;;;;;;;;18.30;99.90;;;;;;7334541;19;109094;-69
2023/08/03 02:02:53;;;;;;;;;;;18.30;99.90;;;;;;7332044;19;109199;-69
2023/08/03 02:05:20;;;;;;;;;;;18.30;99.90;;;;;;7331234;19;108754;-69
2023/08/03 02:07:53;;;;;;;;;;;18.30;99.90;;;;;;7327867;19;112059;-69
2023/08/03 02:10:22;;;;;;;;;;;18.30;99.90;;;;;;7327285;19;109346;-73
2023/08/03 02:12:49;;;;;;;;;;;18.30;99.90;;;;;;7338866;19;109374;-73
2023/08/03 02:15:16;;;;;;;;;;;18.30;99.90;;;;;;7334486;19;110258;-76
2023/08/03 02:17:44;;;;;;;;;;;18.30;99.90;;;;;;7331685;19;110013;-73
2023/08/03 02:20:12;;;;;;;;;;;18.30;99.90;;;;;;7332478;19;111095;-69
2023/08/03 02:22:39;;;;;;;;;;;18.30;99.90;;;;;;7333960;19;109419;-69
2023/08/03 02:25:07;;;;;;;;;;;18.30;99.90;;;;;;7334000;19;109162;-68
2023/08/03 02:27:34;;;;;;;;;;;18.30;99.90;;;;;;7334318;19;109484;-72
2023/08/03 02:30:02;;;;;;;;;;;18.30;99.90;;;;;;7330846;19;108662;-70
2023/08/03 02:32:29;;;;;;;;;;;18.30;99.90;;;;;;7333068;19;109183;-69
2023/08/03 02:34:56;;;;;;;;;;;18.30;99.90;;;;;;7336459;19;109177;-70
2023/08/03 02:37:23;;;;;;;;;;;18.30;99.90;;;;;;7327324;19;110425;-69
2023/08/03 02:39:50;;;;;;;;;;;18.30;99.90;;;;;;7334166;19;109196;-69
2023/08/03 02:42:17;;;;;;;;;;;18.30;99.90;;;;;;7335006;19;110136;-69
2023/08/03 02:44:45;;;;;;;;;;;18.30;99.90;;;;;;7327701;19;109789;-68
2023/08/03 02:47:13;;;;;;;;;;;18.20;99.90;;;;;;7330557;19;109606;-69
2023/08/03 02:49:40;;;;;;;;;;;18.30;99.90;;;;;;7336466;19;108988;-69
2023/08/03 02:52:07;;;;;;;;;;;18.30;99.90;;;;;;7333098;19;110118;-69
2023/08/03 02:54:34;;;;;;;;;;;18.20;99.90;;;;;;7330695;19;112083;-70
2023/08/03 02:57:01;;;;;;;;;;;18.20;99.90;;;;;;7335103;19;109034;-69
2023/08/03 02:59:28;;;;;;;;;;;18.20;99.90;;;;;;7331982;19;109799;-68
2023/08/03 03:01:55;;;;;;;;;;;18.20;99.90;;;;;;7334958;19;108842;-68
2023/08/03 03:04:23;;;;;;;;;;;18.20;99.90;;;;;;7334247;19;110438;-69
2023/08/03 03:06:50;;;;;;;;;;;18.20;99.90;;;;;;7330596;19;109078;-69
2023/08/03 03:09:17;;;;;;;;;;;18.20;99.90;;;;;;7331937;19;108871;-69
2023/08/03 03:11:44;;;;;;;;;;;18.20;99.90;;;;;;7330551;19;108470;-69
2023/08/03 03:14:12;;;;;;;;;;;18.20;99.90;;;;;;7325884;19;109817;-69
2023/08/03 03:16:39;;;;;;;;;;;18.20;99.90;;;;;;7335876;19;109358;-69
2023/08/03 03:19:06;;;;;;;;;;;18.20;99.90;;;;;;7328355;19;109108;-69
2023/08/03 03:21:33;;;;;;;;;;;18.10;99.90;;;;;;7330487;19;109735;-69
2023/08/03 03:24:01;;;;;;;;;;;18.20;99.90;;;;;;7329125;19;108697;-68
2023/08/03 03:26:28;;;;;;;;;;;18.20;99.90;;;;;;7330235;19;110644;-68
2023/08/03 03:28:55;;;;;;;;;;;18.20;99.90;;;;;;7331042;19;109033;-73
2023/08/03 03:31:23;;;;;;;;;;;18.20;99.90;;;;;;7330311;19;110206;-66
2023/08/03 03:33:50;;;;;;;;;;;18.20;99.90;;;;;;7329209;19;111119;-67
2023/08/03 03:36:17;;;;;;;;;;;18.10;99.90;;;;;;7330252;19;109152;-68
2023/08/03 03:38:45;;;;;;;;;;;18.10;99.90;;;;;;7334529;19;109107;-67
2023/08/03 03:41:12;;;;;;;;;;;18.10;99.90;;;;;;7329752;19;108701;-66
2023/08/03 03:43:39;;;;;;;;;;;18.10;99.90;;;;;;7331511;19;109549;-66
2023/08/03 03:46:07;;;;;;;;;;;18.10;99.90;;;;;;7331508;19;109406;-66
2023/08/03 03:48:35;;;;;;;;;;;18.00;99.90;;;;;;7326712;19;110205;-67
2023/08/03 03:51:02;;;;;;;;;;;18.00;99.90;;;;;;7329015;19;109158;-67
2023/08/03 03:53:29;;;;;;;;;;;18.00;99.90;;;;;;7327402;19;110878;-68
2023/08/03 03:55:56;;;;;;;;;;;18.00;99.90;;;;;;7328230;19;110218;-67
2023/08/03 03:58:23;;;;;;;;;;;18.00;99.90;;;;;;7332710;19;109413;-66
2023/08/03 04:00:50;;;;;;;;;;;18.00;99.90;;;;;;7332948;19;109080;-67
2023/08/03 04:03:18;;;;;;;;;;;18.00;99.90;;;;;;7331451;19;109553;-67
2023/08/03 04:05:45;;;;;;;;;;;18.00;99.90;;;;;;7328492;19;109497;-66
2023/08/03 04:08:12;;;;;;;;;;;18.00;99.90;;;;;;7337952;19;108953;-67
2023/08/03 04:10:39;;;;;;;;;;;18.00;99.90;;;;;;7336755;19;110001;-67
2023/08/03 04:13:06;;;;;;;;;;;18.10;99.90;;;;;;7334804;19;110324;-67
2023/08/03 04:15:33;;;;;;;;;;;18.10;99.90;;;;;;7335638;19;108980;-66
2023/08/03 04:18:01;;;;;;;;;;;18.10;99.90;;;;;;7334620;19;110060;-67
2023/08/03 04:20:28;;;;;;;;;;;18.10;99.90;;;;;;7336515;19;109216;-67
2023/08/03 04:22:55;;;;;;;;;;;18.10;99.90;;;;;;7336362;19;110130;-67
2023/08/03 04:25:22;;;;;;;;;;;18.00;99.90;;;;;;7335895;19;109648;-66
2023/08/03 04:27:50;;;;;;;;;;;18.00;99.90;;;;;;7331222;19;108927;-66
2023/08/03 04:30:17;;;;;;;;;;;18.00;99.90;;;;;;7337429;19;108874;-66
2023/08/03 04:32:44;;;;;;;;;;;18.00;99.90;;;;;;7334747;19;110247;-66
2023/08/03 04:35:11;;;;;;;;;;;18.00;99.90;;;;;;7335990;19;109018;-66
2023/08/03 04:37:38;;;;;;;;;;;18.00;99.90;;;;;;7332923;19;110058;-66
2023/08/03 04:40:06;;;;;;;;;;;18.00;99.90;;;;;;7335647;19;111979;-66
2023/08/03 04:42:33;;;;;;;;;;;18.00;99.90;;;;;;7333300;19;110687;-66
2023/08/03 04:45:00;;;;;;;;;;;18.00;99.90;;;;;;7341326;19;109026;-66
2023/08/03 04:47:27;;;;;;;;;;;18.00;99.90;;;;;;7334716;19;109104;-66
2023/08/03 04:49:54;;;;;;;;;;;18.00;99.90;;;;;;7336854;19;111305;-66
2023/08/03 04:52:21;;;;;;;;;;;18.00;99.90;;;;;;7335222;19;109092;-66
2023/08/03 04:54:48;;;;;;;;;;;18.00;99.90;;;;;;7334932;19;109732;-66
2023/08/03 04:57:15;;;;;;;;;;;18.00;99.90;;;;;;7333753;19;109229;-66
2023/08/03 04:59:43;;;;;;;;;;;18.00;99.90;;;;;;7335579;19;109992;-66
2023/08/03 05:02:10;;;;;;;;;;;18.00;99.90;;;;;;7332218;19;109685;-66
2023/08/03 05:04:37;;;;;;;;;;;18.00;99.90;;;;;;7337481;19;109736;-66
2023/08/03 05:07:04;;;;;;;;;;;18.00;99.90;;;;;;7340143;19;110342;-66
2023/08/03 05:09:32;;;;;;;;;;;18.00;99.90;;;;;;7332484;19;110709;-67
2023/08/03 05:11:59;;;;;;;;;;;18.00;99.90;;;;;;7330624;19;110438;-66
2023/08/03 05:14:26;;;;;;;;;;;18.00;99.90;;;;;;7331345;19;108908;-66
2023/08/03 05:16:53;;;;;;;;;;;18.00;99.90;;;;;;7337731;19;109718;-66
2023/08/03 05:19:20;;;;;;;;;;;18.00;99.90;;;;;;7329930;19;110237;-66
2023/08/03 05:21:48;;;;;;;;;;;18.00;99.90;;;;;;7333067;19;108964;-66
2023/08/03 05:24:15;;;;;;;;;;;18.10;99.90;;;;;;7334130;19;108765;-66
2023/08/03 05:26:42;;;;;;;;;;;18.10;99.90;;;;;;7343428;19;109815;-66
2023/08/03 05:29:09;;;;;;;;;;;18.10;99.90;;;;;;7334879;19;109171;-66
2023/08/03 05:31:36;;;;;;;;;;;18.00;99.90;;;;;;7334963;19;111869;-66
2023/08/03 05:34:03;;;;;;;;;;;18.00;99.90;;;;;;7333459;19;108845;-68
2023/08/03 05:36:30;;;;;;;;;;;18.00;99.90;;;;;;7336301;19;108612;-66
2023/08/03 05:38:57;;;;;;;;;;;18.10;99.90;;;;;;7333804;19;110258;-66
2023/08/03 05:41:27;;;;;;;;;;;18.10;99.90;;;;;;7334485;19;108837;-66
2023/08/03 05:43:54;;;;;;;;;;;18.10;99.90;;;;;;7333919;19;113423;-66
2023/08/03 05:46:21;;;;;;;;;;;18.10;99.90;;;;;;7332527;19;109687;-66
2023/08/03 05:48:52;;;;;;;;;;;18.10;99.90;;;;;;7336832;19;108899;-66
2023/08/03 05:51:24;;;;;;;;;;;18.10;99.90;;;;;;7332812;19;109115;-66
2023/08/03 05:53:52;;;;;;;;;;;18.10;99.90;;;;;;7333459;19;110260;-66
2023/08/03 05:56:21;;;;;;;;;;;18.10;99.90;;;;;;7335505;19;109196;-66
2023/08/03 05:58:52;;;;;;;;;;;18.10;99.90;;;;;;7335449;19;110779;-66
2023/08/03 06:01:20;;;;;;;;;;;18.10;99.90;;;;;;7334510;19;108788;-66
2023/08/03 06:03:50;;;;;;;;;;;18.10;99.90;;;;;;7336277;19;109256;-66
2023/08/03 06:06:18;;;;;;;;;;;18.20;99.90;;;;;;7334705;19;110033;-67
2023/08/03 06:08:47;;;;;;;;;;;18.20;99.90;;;;;;7332708;19;108536;-66
2023/08/03 06:11:15;;;;;;;;;;;18.20;99.90;;;;;;7340117;19;110937;-66
2023/08/03 06:13:52;;;;;;;;;;;18.30;99.90;;;;;;7336418;19;109038;-66
2023/08/03 06:16:21;;;;;;;;;;;18.30;99.90;;;;;;7331869;19;110509;-69
2023/08/03 06:18:49;;;;;;;;;;;18.30;99.90;;;;;;7335149;19;109233;-66
2023/08/03 06:21:17;;;;;;;;;;;18.30;99.90;;;;;;7333834;19;108794;-66
2023/08/03 06:23:45;;;;;;;;;;;18.30;99.90;;;;;;7336435;19;109148;-67
2023/08/03 06:26:13;;;;;;;;;;;18.40;99.90;;;;;;7333657;19;110511;-66
2023/08/03 06:28:41;;;;;;;;;;;18.40;99.90;;;;;;7337316;19;110062;-66
2023/08/03 06:31:18;;;;;;;;;;;18.40;99.90;;;;;;7332266;19;109072;-66
2023/08/03 06:33:47;;;;;;;;;;;18.50;99.90;;;;;;7339643;19;109089;-69
2023/08/03 06:36:23;;;;;;;;;;;18.50;99.90;;;;;;7336637;19;109270;-67
2023/08/03 06:38:51;;;;;;;;;;;18.50;99.90;;;;;;7334237;19;110909;-67
2023/08/03 06:41:21;;;;;;;;;;;18.50;99.90;;;;;;7334532;19;108741;-66
2023/08/03 06:43:48;;;;;;;;;;;18.60;99.90;;;;;;7334107;19;108687;-66
2023/08/03 06:46:15;;;;;;;;;;;18.50;99.90;;;;;;7333341;19;109767;-66
2023/08/03 06:48:42;;;;;;;;;;;18.50;99.90;;;;;;7332993;19;109889;-67
2023/08/03 06:51:09;;;;;;;;;;;18.50;99.90;;;;;;7331616;19;114025;-67
2023/08/03 06:53:37;;;;;;;;;;;18.50;99.90;;;;;;7333299;19;109396;-67
2023/08/03 06:56:04;;;;;;;;;;;18.60;99.90;;;;;;7339124;19;109459;-66
2023/08/03 06:58:31;;;;;;;;;;;18.60;99.90;;;;;;7335170;19;109262;-66
2023/08/03 07:00:59;;;;;;;;;;;18.60;99.90;;;;;;7331430;19;108394;-66
2023/08/03 07:03:26;;;;;;;;;;;18.60;99.90;;;;;;7332140;19;108930;-66
2023/08/03 07:05:53;;;;;;;;;;;18.60;99.90;;;;;;7331478;19;109606;-66
2023/08/03 07:08:21;;;;;;;;;;;18.70;99.90;;;;;;7333809;19;109420;-69
2023/08/03 07:10:49;;;;;;;;;;;18.70;99.90;;;;;;7332361;19;109483;-66
2023/08/03 07:13:16;;;;;;;;;;;18.60;99.90;;;;;;7332776;19;110222;-66
2023/08/03 07:15:44;;;;;;;;;;;18.60;99.90;;;;;;7333876;19;108378;-67
2023/08/03 07:18:11;;;;;;;;;;;18.60;99.90;;;;;;7337395;19;109627;-67
2023/08/03 07:20:39;;;;;;;;;;;18.70;99.90;;;;;;7331476;19;108990;-66
2023/08/03 07:23:07;;;;;;;;;;;18.70;99.90;;;;;;7328027;19;108604;-66
2023/08/03 07:25:34;;;;;;;;;;;18.70;99.90;;;;;;7333399;19;115726;-66
2023/08/03 07:28:02;;;;;;;;;;;18.70;99.90;;;;;;7334211;19;110033;-66
2023/08/03 07:30:29;;;;;;;;;;;18.80;99.90;;;;;;7335228;19;109580;-66
2023/08/03 07:32:59;;;;;;;;;;;18.80;99.90;;;;;;7331820;19;109124;-66
2023/08/03 07:35:26;;;;;;;;;;;18.90;99.90;;;;;;7328229;19;109496;-67
2023/08/03 07:37:53;;;;;;;;;;;18.90;99.90;;;;;;7338801;19;109118;-66
2023/08/03 07:40:20;;;;;;;;;;;18.90;99.90;;;;;;7329483;19;108532;-66
2023/08/03 07:42:47;;;;;;;;;;;19.00;99.90;;;;;;7338971;19;110130;-66
2023/08/03 07:45:14;;;;;;;;;;;19.00;99.90;;;;;;7339585;19;112441;-66
2023/08/03 07:48:02;;;;;;;;;;;19.00;99.90;;;;;;7342027;19;108766;-67
2023/08/03 07:50:29;;;;;;;;;;;19.00;99.90;;;;;;7339029;19;108459;-67
2023/08/03 07:52:56;;;;;;;;;;;19.00;99.90;;;;;;7338011;19;113056;-66
2023/08/03 07:55:23;;;;;;;;;;;19.00;99.90;;;;;;7339491;19;109969;-66
2023/08/03 07:57:51;;;;;;;;;;;19.00;99.90;;;;;;7338176;19;109733;-66
2023/08/03 08:00:22;;;;;;;;;;;19.10;99.90;;;;;;7342711;19;109213;-68
2023/08/03 08:02:49;;;;;;;;;;;19.10;99.90;;;;;;7341431;19;109606;-66
2023/08/03 08:05:16;;;;;;;;;;;19.20;99.90;;;;;;7335522;19;110440;-68
2023/08/03 08:07:44;;;;;;;;;;;19.20;99.90;;;;;;7342818;19;109438;-67
2023/08/03 08:10:11;;;;;;;;;;;19.20;99.90;;;;;;7341196;19;109915;-66
2023/08/03 08:12:38;;;;;;;;;;;19.20;99.90;;;;;;7338006;19;112142;-66
2023/08/03 08:15:05;;;;;;;;;;;19.30;99.90;;;;;;7339683;19;108934;-66
2023/08/03 08:17:33;;;;;;;;;;;19.30;99.90;;;;;;7338261;19;110861;-66
2023/08/03 08:20:00;;;;;;;;;;;19.40;99.90;;;;;;7339614;19;109134;-66
2023/08/03 08:22:27;;;;;;;;;;;19.40;99.90;;;;;;7342160;19;108476;-67
2023/08/03 08:24:54;;;;;;;;;;;19.40;99.90;;;;;;7339494;19;110234;-66
2023/08/03 08:27:22;;;;;;;;;;;19.40;99.90;;;;;;7339430;19;108870;-66
2023/08/03 08:29:49;;;;;;;;;;;19.40;99.90;;;;;;7340353;19;108984;-67
2023/08/03 08:32:16;;;;;;;;;;;19.40;99.90;;;;;;7335723;19;109855;-67
2023/08/03 08:34:44;;;;;;;;;;;19.30;99.90;;;;;;7341698;19;109127;-67
2023/08/03 08:37:11;;;;;;;;;;;19.30;99.90;;;;;;7337858;19;109385;-66
2023/08/03 08:39:38;;;;;;;;;;;19.30;99.90;;;;;;7340768;19;109355;-68
2023/08/03 08:42:09;;;;;;;;;;;19.40;99.90;;;;;;7336341;19;108876;-67
2023/08/03 08:44:37;;;;;;;;;;;19.40;99.90;;;;;;7343613;19;109289;-67
2023/08/03 08:47:05;;;;;;;;;;;19.30;99.90;;;;;;7339233;19;109680;-67
2023/08/03 08:49:32;;;;;;;;;;;19.40;99.90;;;;;;7336369;19;108803;-66
2023/08/03 08:52:03;;;;;;;;;;;19.40;99.90;;;;;;7339753;19;109369;-67
2023/08/03 08:54:31;;;;;;;;;;;19.40;99.90;;;;;;7336758;19;108954;-66
2023/08/03 08:57:01;;;;;;;;;;;19.40;99.90;;;;;;7337455;19;108846;-67
2023/08/03 08:59:36;;;;;;;;;;;19.40;99.90;;;;;;7335212;19;109490;-67
2023/08/03 09:02:06;;;;;;;;;;;19.50;99.90;;;;;;7336953;19;108755;-69
2023/08/03 09:04:33;;;;;;;;;;;19.50;99.90;;;;;;7334141;19;109813;-67
2023/08/03 09:07:02;;;;;;;;;;;19.40;99.90;;;;;;7341029;19;109632;-66
2023/08/03 09:09:34;;;;;;;;;;;19.40;99.90;;;;;;7333852;19;110033;-67
2023/08/03 09:12:02;;;;;;;;;;;19.40;99.90;;;;;;7335051;19;109132;-67
2023/08/03 09:14:31;;;;;;;;;;;19.50;99.90;;;;;;7322707;19;110511;-68
2023/08/03 09:17:17;;;;;;;;;;;19.50;99.90;;;;;;7336270;19;109687;-68
2023/08/03 09:19:48;;;;;;;;;;;19.50;99.90;;;;;;7332989;19;112724;-67
2023/08/03 09:33:32;;;;;;;;;;;19.40;99.90;;;;;;7330211;19;108941;-67
2023/08/03 09:36:07;;;;;;;;;;;19.40;99.90;;;;;;7329703;19;110195;-67
2023/08/03 09:39:10;;;;;;;;;;;19.40;99.90;;;;;;7335964;19;111069;-67
2023/08/03 09:41:40;;;;;;;;;;;19.40;99.90;;;;;;7336331;19;108801;-67
2023/08/03 09:44:14;;;;;;;;;;;19.50;99.90;;;;;;7330188;19;110864;-73
2023/08/03 09:46:41;;;;;;;;;;;19.50;99.90;;;;;;7335678;19;108896;-68
2023/08/03 09:49:09;;;;;;;;;;;19.50;99.90;;;;;;7332195;19;110154;-68
2023/08/03 09:51:42;;;;;;;;;;;19.60;99.90;;;;;;7339730;19;110232;-67
2023/08/03 09:54:23;;;;;;;;;;;19.70;99.90;;;;;;7330168;19;109654;-67
2023/08/03 09:56:54;;;;;;;;;;;19.70;99.90;;;;;;7335753;19;108854;-68
2023/08/03 09:59:25;;;;;;;;;;;19.80;99.90;;;;;;7331953;19;110460;-69
2023/08/03 10:01:56;;;;;;;;;;;19.80;99.90;;;;;;7336377;19;110218;-75
2023/08/03 10:04:30;;;;;;;;;;;19.90;99.90;;;;;;7332932;19;109841;-74
2023/08/03 10:07:01;;;;;;;;;;;19.90;99.90;;;;;;7332795;19;109487;-69
2023/08/03 10:09:31;;;;;;;;;;;19.80;99.90;;;;;;7337843;19;109121;-73
2023/08/03 10:11:59;;;;;;;;;;;19.70;99.90;;;;;;7334537;19;108836;-72
2023/08/03 10:14:30;;;;;;;;;;;19.80;99.90;;;;;;7337449;19;110903;-73
2023/08/03 10:17:00;;;;;;;;;;;19.70;99.90;;;;;;7335086;19;108749;-76
2023/08/03 10:19:28;;;;;;;;;;;19.80;99.90;;;;;;7334241;19;110512;-75
2023/08/03 10:21:55;;;;;;;;;;;19.80;99.90;;;;;;7332070;19;110305;-76
2023/08/03 10:24:22;;;;;;;;;;;19.80;99.90;;;;;;7334355;19;108904;-71
2023/08/03 10:26:51;;;;;;;;;;;19.70;99.90;;;;;;7333974;19;109430;-74
2023/08/03 10:29:37;;;;;;;;;;;19.70;99.90;;;;;;7332623;19;109881;-75
2023/08/03 10:32:04;;;;;;;;;;;19.60;99.90;;;;;;7334778;19;109029;-75
2023/08/03 10:34:32;;;;;;;;;;;19.70;99.90;;;;;;7335043;19;108832;-71
2023/08/03 10:36:59;;;;;;;;;;;19.70;99.90;;;;;;7340282;19;110292;-79
2023/08/03 10:39:49;;;;;;;;;;;19.60;99.90;;;;;;7333238;19;109525;-77
2023/08/03 10:42:21;;;;;;;;;;;19.60;99.90;;;;;;7330997;19;110588;-67
2023/08/03 10:44:48;;;;;;;;;;;19.50;99.90;;;;;;7333807;19;110360;-67
2023/08/03 10:47:25;;;;;;;;;;;19.50;99.90;;;;;;7333967;19;108676;-69
2023/08/03 10:49:54;;;;;;;;;;;19.50;99.90;;;;;;7335407;19;109825;-69
2023/08/03 10:52:22;;;;;;;;;;;19.50;99.90;;;;;;7332971;19;108443;-67
2023/08/03 10:54:49;;;;;;;;;;;19.60;99.90;;;;;;7333286;19;110287;-68
2023/08/03 10:57:19;;;;;;;;;;;19.60;99.90;;;;;;7333354;19;109493;-68
2023/08/03 10:59:47;;;;;;;;;;;19.60;99.90;;;;;;7340347;19;108453;-89
2023/08/03 11:02:29;;;;;;;;;;;19.60;99.90;;;;;;7356895;19;112019;-89
2023/08/03 11:04:58;;;;;;;;;;;19.60;99.90;;;;;;7358185;19;109987;-88
2023/08/03 11:07:26;;;;;;;;;;;19.70;99.90;;;;;;7357609;19;109273;-90
2023/08/03 11:09:53;;;;;;;;;;;19.70;99.90;;;;;;7355511;19;109299;-91
2023/08/03 11:12:22;;;;;;;;;;;19.60;99.90;;;;;;7355475;19;108510;-90
2023/08/03 11:14:51;;;;;;;;;;;19.60;99.90;;;;;;7356322;19;111940;-91
2023/08/03 11:17:20;;;;;;;;;;;19.70;99.90;;;;;;7344632;19;112695;-90
2023/08/03 11:19:48;;;;;;;;;;;19.70;99.90;;;;;;7346748;19;108713;-90
2023/08/03 11:22:15;;;;;;;;;;;19.70;99.90;;;;;;7347847;19;108839;-90
2023/08/03 11:24:43;;;;;;;;;;;19.70;99.90;;;;;;7342676;19;109192;-88
2023/08/03 11:27:11;;;;;;;;;;;19.70;99.90;;;;;;7340755;19;109196;-88
2023/08/03 11:29:39;;;;;;;;;;;19.70;99.90;;;;;;7338446;19;113108;-88
2023/08/03 11:32:15;;;;;;;;;;;19.60;99.90;;;;;;7338750;19;110073;-87
2023/08/03 11:34:42;;;;;;;;;;;19.70;99.90;;;;;;7346909;19;111787;-87
2023/08/03 11:37:33;;;;;;;;;;;19.70;99.90;;;;;;7341262;19;112824;-87
2023/08/03 11:40:14;;;;;;;;;;;19.60;99.90;;;;;;7320618;19;109663;-67
2023/08/03 11:42:43;;;;;;;;;;;19.60;99.90;;;;;;7337719;19;110025;-67
2023/08/03 11:45:13;;;;;;;;;;;19.50;99.90;;;;;;7331052;19;109373;-68
2023/08/03 11:47:43;;;;;;;;;;;19.50;99.90;;;;;;7329220;19;108706;-67
2023/08/03 11:50:11;;;;;;;;;;;19.50;99.90;;;;;;7333390;19;109280;-68
2023/08/03 11:52:39;;;;;;;;;;;19.40;99.90;;;;;;7330126;19;109092;-67
2023/08/03 11:55:07;;;;;;;;;;;19.40;99.90;;;;;;7331774;19;108936;-67
2023/08/03 12:00:20;;;;;;;;;;;19.40;99.90;;;;;;7334647;19;109731;-68
2023/08/03 12:02:48;;;;;;;;;;;19.40;99.90;;;;;;7330199;19;108788;-68
2023/08/03 12:05:20;;;;;;;;;;;19.50;99.90;;;;;;7338066;19;109947;-67
2023/08/03 12:07:57;;;;;;;;;;;19.50;99.90;;;;;;7332361;19;109512;-68
2023/08/03 12:10:27;;;;;;;;;;;19.50;99.90;;;;;;7333805;19;108810;-67
2023/08/03 12:12:54;;;;;;;;;;;19.50;99.90;;;;;;7332154;19;108904;-67
2023/08/03 12:15:27;;;;;;;;;;;19.50;99.90;;;;;;7334098;19;112568;-69
2023/08/03 12:18:08;;;;;;;;;;;19.50;99.90;;;;;;7331032;19;108769;-69
2023/08/03 12:20:37;;;;;;;;;;;19.60;99.90;;;;;;7331778;19;109163;-67
2023/08/03 12:23:05;;;;;;;;;;;19.60;99.90;;;;;;7331689;19;109356;-68
2023/08/03 12:25:33;;;;;;;;;;;19.70;99.90;;;;;;7327764;19;109307;-67
2023/08/03 12:28:04;;;;;;;;;;;19.70;99.90;;;;;;7338940;19;108878;-67
2023/08/03 12:30:31;;;;;;;;;;;19.70;99.90;;;;;;7337846;19;109503;-67
2023/08/03 12:32:58;;;;;;;;;;;19.80;99.90;;;;;;7338462;19;109029;-67
2023/08/03 12:35:27;;;;;;;;;;;19.90;99.90;;;;;;7336378;19;108528;-67
2023/08/03 12:37:54;;;;;;;;;;;19.90;99.90;;;;;;7337850;19;109319;-67
2023/08/03 12:40:26;;;;;;;;;;;20.00;99.90;;;;;;7331091;19;109105;-67
2023/08/03 12:42:55;;;;;;;;;;;20.10;99.90;;;;;;7339967;19;109078;-67
2023/08/03 12:45:23;;;;;;;;;;;20.30;99.90;;;;;;7335269;19;110755;-68
2023/08/03 12:47:52;;;;;;;;;;;20.40;99.90;;;;;;7339357;19;108957;-67
2023/08/03 12:50:20;;;;;;;;;;;20.50;99.90;;;;;;7343772;19;111251;-67
2023/08/03 12:52:47;;;;;;;;;;;20.50;99.90;;;;;;7340676;19;109553;-67
2023/08/03 12:55:15;;;;;;;;;;;20.50;99.90;;;;;;7335541;19;109493;-67
2023/08/03 12:57:42;;;;;;;;;;;20.40;99.90;;;;;;7338704;19;109219;-67
2023/08/03 13:00:10;;;;;;;;;;;20.50;99.90;;;;;;7335040;19;109556;-67
2023/08/03 13:02:37;;;;;;;;;;;20.50;99.90;;;;;;7334812;19;109469;-67
2023/08/03 13:05:08;;;;;;;;;;;20.40;99.90;;;;;;7337245;19;109719;-67
2023/08/03 13:07:35;;;;;;;;;;;20.30;99.90;;;;;;7333934;19;109074;-68
2023/08/03 13:10:02;;;;;;;;;;;20.30;99.90;;;;;;7335352;19;109885;-67
2023/08/03 13:12:33;;;;;;;;;;;20.20;99.90;;;;;;7339613;19;110129;-70
2023/08/03 13:15:00;;;;;;;;;;;20.20;99.90;;;;;;7339481;19;108465;-67
2023/08/03 13:17:27;;;;;;;;;;;20.20;99.90;;;;;;7336213;19;110189;-67
2023/08/03 13:19:54;;;;;;;;;;;20.10;99.90;;;;;;7341247;19;108852;-67
2023/08/03 13:22:22;;;;;;;;;;;20.10;99.90;;;;;;7338346;19;108747;-67
2023/08/03 13:24:49;;;;;;;;;;;20.00;99.90;;;;;;7338538;19;109455;-67
2023/08/03 13:27:18;;;;;;;;;;;20.00;99.90;;;;;;7333564;19;109445;-67
2023/08/03 13:29:47;;;;;;;;;;;20.00;99.90;;;;;;7336952;19;109032;-67
2023/08/03 13:32:14;;;;;;;;;;;20.00;99.90;;;;;;7338504;19;109076;-67
2023/08/03 13:34:41;;;;;;;;;;;19.90;99.90;;;;;;7340649;19;108921;-67
2023/08/03 13:37:09;;;;;;;;;;;19.90;99.90;;;;;;7335587;19;109599;-67
2023/08/03 13:39:37;;;;;;;;;;;19.90;99.90;;;;;;7334105;19;108960;-67
2023/08/03 13:42:04;;;;;;;;;;;19.90;99.90;;;;;;7336501;19;108554;-67
2023/08/03 13:44:31;;;;;;;;;;;19.90;99.90;;;;;;7335551;19;109481;-67
2023/08/03 13:47:02;;;;;;;;;;;19.90;99.90;;;;;;7335912;19;109450;-67
2023/08/03 13:49:30;;;;;;;;;;;19.90;99.90;;;;;;7337395;19;109308;-67
2023/08/03 13:51:57;;;;;;;;;;;19.90;99.90;;;;;;7331694;19;108897;-67
2023/08/03 13:54:24;;;;;;;;;;;19.90;99.90;;;;;;7336860;19;110765;-67
2023/08/03 13:56:52;;;;;;;;;;;19.90;99.90;;;;;;7333339;19;110364;-67
2023/08/03 13:59:22;;;;;;;;;;;19.70;99.90;;;;;;7336554;19;109647;-67
2023/08/03 14:01:50;;;;;;;;;;;19.70;99.90;;;;;;7335084;19;112494;-67
2023/08/03 14:04:21;;;;;;;;;;;19.30;99.90;;;;;;7335074;19;109487;-67
2023/08/03 14:06:49;;;;;;;;;;;19.20;99.90;;;;;;7335392;19;109021;-67
2023/08/03 14:09:19;;;;;;;;;;;18.90;99.90;;;;;;7334682;19;109976;-66
2023/08/03 14:11:46;;;;;;;;;;;18.80;99.90;;;;;;7333330;19;109234;-67
2023/08/03 14:14:16;;;;;;;;;;;18.70;99.90;;;;;;7332887;19;109996;-67
2023/08/03 14:16:50;;;;;;;;;;;18.80;99.90;;;;;;7338133;19;108842;-67
2023/08/03 14:19:24;;;;;;;;;;;18.80;99.90;;;;;;7333867;19;108861;-67
2023/08/03 14:21:52;;;;;;;;;;;18.90;99.90;;;;;;7337515;19;110773;-67
2023/08/03 14:24:25;;;;;;;;;;;19.00;99.90;;;;;;7330052;19;109951;-67
2023/08/03 14:26:53;;;;;;;;;;;19.10;99.90;;;;;;7334750;19;109848;-67